Grand Rapids, MI (49501)

8:39 AM EDT on July 27, 2016 (GMT -0400)
WXGR.NET | | Change Station

Elev 756 ft 42.96 °N, 85.63 °W | Updated 12 seconds ago

Scattered Clouds
Scattered Clouds
69.4 °F
Feels Like 69.4 °F
N
0.0
Wind Variable Wind from West
Gusts 0.0 mph

Today
High -- | Low -- °F
--% Chance of Precip.
Yesterday
High -- | Low -- °F
Precip. -- in
Pressure 30.02 in
Visibility 10.0 miles
Clouds Scattered Clouds 5000 ft
Scattered Clouds 22000 ft
Dew Point 64 °F
Humidity 82%
Rainfall 0.00 in
Snow Depth Not available.
6:28 AM 9:08 PM
Last Quarter, 43% visible
METAR KGRR 271153Z 22003KT 10SM SCT050 SCT220 21/17 A3003 RMK AO2 SLP164 T02060172 10206 20167 51009 $
Pressure 30.02 in
Visibility 10.0 miles
Clouds Scattered Clouds 5000 ft
Scattered Clouds 22000 ft
Dew Point 64 °F
Humidity 82%
Rainfall 0.00 in
Snow Depth Not available.
6:28 AM 9:08 PM
Last Quarter, 43% visible
METAR KGRR 271153Z 22003KT 10SM SCT050 SCT220 21/17 A3003 RMK AO2 SLP164 T02060172 10206 20167 51009 $

10-Day Weather Forecast

Almanac

Astronomy

Jul. 27, 2016 Rise Set
Actual Time
Civil Twilight
Nautical Twilight
Astronomical Twilight
Moon
Length of Visible Light
Length of Day
Tomorrow will be .
, % of the Moon is Illuminated

Today's Extremes

State Highs State Lows

Community

WunderPhotos

Upload Photos

1,927,838 photos uploaded!

WunderBlog® & News

Nearby

Air Quality

  Air Quality AQ Index Pollutant
Not available.

Snow Depth

Station Depth Elevation

Earthquake Activity

City Distance Mag. Time & Date
Minimum magnitude displayed is 2.5.

Coastal Water Temperatures

Place Temperature

Stations

Nearby Weather Stations

Station Location Temp. Windchill Dew Point Humidity Wind Precip. Elev Updated Type
                   

Watches & Warnings

There are currently no watches in effect.